sensor_id;sensor_type;location;lat;lon;timestamp;P1;durP1;ratioP1;P2;durP2;ratioP2
24084;SDS011;12268;52.110;5.548;2022-11-20T01:23:16;21.88;;;10.80;;
24084;SDS011;12268;52.110;5.548;2022-11-20T01:25:41;20.48;;;10.57;;
24084;SDS011;12268;52.110;5.548;2022-11-20T01:28:07;24.90;;;12.18;;
24084;SDS011;12268;52.110;5.548;2022-11-20T01:30:32;19.10;;;9.77;;
24084;SDS011;12268;52.110;5.548;2022-11-20T01:32:58;17.48;;;9.73;;
24084;SDS011;12268;52.110;5.548;2022-11-20T01:35:23;16.73;;;9.20;;
24084;SDS011;12268;52.110;5.548;2022-11-20T01:37:49;17.33;;;9.65;;
24084;SDS011;12268;52.110;5.548;2022-11-20T01:40:15;18.98;;;9.27;;
24084;SDS011;12268;52.110;5.548;2022-11-20T01:42:44;22.33;;;10.43;;
24084;SDS011;12268;52.110;5.548;2022-11-20T01:48:25;15.77;;;9.05;;
24084;SDS011;12268;52.110;5.548;2022-11-20T01:50:55;22.00;;;9.80;;
24084;SDS011;12268;52.110;5.548;2022-11-20T01:53:23;15.65;;;9.55;;
24084;SDS011;12268;52.110;5.548;2022-11-20T01:55:53;9.88;;;7.55;;
24084;SDS011;12268;52.110;5.548;2022-11-20T01:58:25;19.13;;;9.38;;
24084;SDS011;12268;52.110;5.548;2022-11-20T02:00:53;14.63;;;8.98;;
24084;SDS011;12268;52.110;5.548;2022-11-20T02:03:19;17.15;;;9.27;;
24084;SDS011;12268;52.110;5.548;2022-11-20T02:05:53;16.38;;;9.10;;
24084;SDS011;12268;52.110;5.548;2022-11-20T02:08:25;20.25;;;9.27;;
24084;SDS011;12268;52.110;5.548;2022-11-20T02:10:51;16.58;;;10.18;;
24084;SDS011;12268;52.110;5.548;2022-11-20T02:13:16;18.48;;;9.68;;
24084;SDS011;12268;52.110;5.548;2022-11-20T02:16:01;16.90;;;9.60;;
24084;SDS011;12268;52.110;5.548;2022-11-20T02:18:27;20.25;;;10.20;;
24084;SDS011;12268;52.110;5.548;2022-11-20T02:20:54;20.08;;;10.55;;
24084;SDS011;12268;52.110;5.548;2022-11-20T02:26:24;18.88;;;9.90;;
24084;SDS011;12268;52.110;5.548;2022-11-20T02:28:52;14.75;;;8.57;;
24084;SDS011;12268;52.110;5.548;2022-11-20T02:31:19;17.08;;;9.30;;
24084;SDS011;12268;52.110;5.548;2022-11-20T02:33:44;17.10;;;9.10;;
24084;SDS011;12268;52.110;5.548;2022-11-20T02:36:11;16.90;;;9.93;;
24084;SDS011;12268;52.110;5.548;2022-11-20T02:38:41;21.77;;;10.40;;
24084;SDS011;12268;52.110;5.548;2022-11-20T02:41:08;23.25;;;9.15;;
24084;SDS011;12268;52.110;5.548;2022-11-20T02:43:33;20.67;;;9.88;;
24084;SDS011;12268;52.110;5.548;2022-11-20T02:45:59;21.75;;;10.07;;
24084;SDS011;12268;52.110;5.548;2022-11-20T02:48:24;15.35;;;9.00;;
24084;SDS011;12268;52.110;5.548;2022-11-20T02:50:50;19.83;;;9.80;;
24084;SDS011;12268;52.110;5.548;2022-11-20T02:53:15;15.75;;;9.40;;
24084;SDS011;12268;52.110;5.548;2022-11-20T02:55:41;18.38;;;10.50;;
24084;SDS011;12268;52.110;5.548;2022-11-20T02:58:06;13.93;;;8.70;;
24084;SDS011;12268;52.110;5.548;2022-11-20T03:00:32;20.42;;;10.32;;
24084;SDS011;12268;52.110;5.548;2022-11-20T03:02:57;24.23;;;11.27;;
24084;SDS011;12268;52.110;5.548;2022-11-20T03:05:23;32.55;;;13.48;;
24084;SDS011;12268;52.110;5.548;2022-11-20T03:07:48;28.40;;;12.77;;
24084;SDS011;12268;52.110;5.548;2022-11-20T03:10:14;21.95;;;10.07;;
24084;SDS011;12268;52.110;5.548;2022-11-20T03:12:39;23.35;;;10.93;;
24084;SDS011;12268;52.110;5.548;2022-11-20T03:15:05;21.50;;;11.93;;
24084;SDS011;12268;52.110;5.548;2022-11-20T03:17:31;19.50;;;10.02;;
24084;SDS011;12268;52.110;5.548;2022-11-20T03:19:56;22.10;;;10.45;;
24084;SDS011;12268;52.110;5.548;2022-11-20T03:22:22;20.35;;;10.65;;
24084;SDS011;12268;52.110;5.548;2022-11-20T03:24:47;19.60;;;10.68;;
24084;SDS011;12268;52.110;5.548;2022-11-20T03:27:13;23.75;;;9.93;;
24084;SDS011;12268;52.110;5.548;2022-11-20T03:29:38;19.35;;;11.10;;
24084;SDS011;12268;52.110;5.548;2022-11-20T03:32:04;19.08;;;9.75;;
24084;SDS011;12268;52.110;5.548;2022-11-20T03:34:30;14.45;;;8.63;;
24084;SDS011;12268;52.110;5.548;2022-11-20T03:36:55;17.67;;;9.95;;
24084;SDS011;12268;52.110;5.548;2022-11-20T03:39:21;15.88;;;9.52;;
24084;SDS011;12268;52.110;5.548;2022-11-20T03:41:46;18.10;;;9.82;;
24084;SDS011;12268;52.110;5.548;2022-11-20T03:44:12;16.30;;;10.43;;
24084;SDS011;12268;52.110;5.548;2022-11-20T03:46:37;18.27;;;9.15;;
24084;SDS011;12268;52.110;5.548;2022-11-20T03:49:04;20.67;;;10.18;;
24084;SDS011;12268;52.110;5.548;2022-11-20T03:51:31;18.92;;;9.77;;
24084;SDS011;12268;52.110;5.548;2022-11-20T03:53:59;16.42;;;8.70;;
24084;SDS011;12268;52.110;5.548;2022-11-20T03:56:27;17.20;;;9.75;;
24084;SDS011;12268;52.110;5.548;2022-11-20T03:58:54;19.83;;;10.15;;
24084;SDS011;12268;52.110;5.548;2022-11-20T04:01:21;19.92;;;10.05;;
24084;SDS011;12268;52.110;5.548;2022-11-20T04:03:49;20.38;;;9.75;;
24084;SDS011;12268;52.110;5.548;2022-11-20T04:06:19;15.40;;;9.90;;
24084;SDS011;12268;52.110;5.548;2022-11-20T04:08:46;19.80;;;9.32;;
24084;SDS011;12268;52.110;5.548;2022-11-20T04:11:20;15.82;;;9.10;;
24084;SDS011;12268;52.110;5.548;2022-11-20T04:13:51;14.95;;;9.02;;
24084;SDS011;12268;52.110;5.548;2022-11-20T04:16:18;24.08;;;10.05;;
24084;SDS011;12268;52.110;5.548;2022-11-20T04:18:45;19.02;;;10.30;;
24084;SDS011;12268;52.110;5.548;2022-11-20T04:21:11;20.13;;;10.23;;
24084;SDS011;12268;52.110;5.548;2022-11-20T04:23:38;15.20;;;8.75;;
24084;SDS011;12268;52.110;5.548;2022-11-20T04:26:11;16.45;;;9.30;;
24084;SDS011;12268;52.110;5.548;2022-11-20T04:28:37;16.17;;;9.25;;
24084;SDS011;12268;52.110;5.548;2022-11-20T04:31:11;16.13;;;9.43;;
24084;SDS011;12268;52.110;5.548;2022-11-20T04:33:39;19.13;;;10.13;;
24084;SDS011;12268;52.110;5.548;2022-11-20T04:36:12;17.80;;;9.70;;
24084;SDS011;12268;52.110;5.548;2022-11-20T04:38:40;23.23;;;10.98;;
24084;SDS011;12268;52.110;5.548;2022-11-20T04:41:08;16.45;;;10.00;;
24084;SDS011;12268;52.110;5.548;2022-11-20T04:43:39;20.20;;;11.20;;
24084;SDS011;12268;52.110;5.548;2022-11-20T04:46:04;24.33;;;10.75;;
24084;SDS011;12268;52.110;5.548;2022-11-20T04:48:30;17.10;;;10.65;;
24084;SDS011;12268;52.110;5.548;2022-11-20T04:50:56;20.33;;;11.00;;
24084;SDS011;12268;52.110;5.548;2022-11-20T04:53:22;23.52;;;10.75;;
24084;SDS011;12268;52.110;5.548;2022-11-20T04:55:48;22.58;;;11.63;;
24084;SDS011;12268;52.110;5.548;2022-11-20T04:58:14;21.55;;;10.13;;
24084;SDS011;12268;52.110;5.548;2022-11-20T05:00:40;17.98;;;10.98;;
24084;SDS011;12268;52.110;5.548;2022-11-20T05:03:06;17.30;;;9.93;;
24084;SDS011;12268;52.110;5.548;2022-11-20T05:05:33;17.08;;;11.20;;
24084;SDS011;12268;52.110;5.548;2022-11-20T05:07:59;19.77;;;10.10;;
24084;SDS011;12268;52.110;5.548;2022-11-20T05:10:25;22.15;;;10.15;;
24084;SDS011;12268;52.110;5.548;2022-11-20T05:12:51;19.88;;;12.05;;
24084;SDS011;12268;52.110;5.548;2022-11-20T05:15:17;19.05;;;10.80;;
24084;SDS011;12268;52.110;5.548;2022-11-20T05:17:49;21.92;;;11.82;;
24084;SDS011;12268;52.110;5.548;2022-11-20T05:20:16;19.73;;;11.00;;
24084;SDS011;12268;52.110;5.548;2022-11-20T05:22:42;16.42;;;9.13;;
24084;SDS011;12268;52.110;5.548;2022-11-20T05:25:08;18.38;;;10.25;;
24084;SDS011;12268;52.110;5.548;2022-11-20T05:27:34;18.75;;;9.93;;
24084;SDS011;12268;52.110;5.548;2022-11-20T05:30:00;20.10;;;10.35;;
24084;SDS011;12268;52.110;5.548;2022-11-20T05:32:25;22.35;;;9.80;;
24084;SDS011;12268;52.110;5.548;2022-11-20T05:34:52;16.95;;;10.45;;
24084;SDS011;12268;52.110;5.548;2022-11-20T05:37:17;19.75;;;10.35;;
24084;SDS011;12268;52.110;5.548;2022-11-20T05:39:43;18.02;;;9.68;;
24084;SDS011;12268;52.110;5.548;2022-11-20T05:42:08;29.88;;;9.65;;
24084;SDS011;12268;52.110;5.548;2022-11-20T05:44:52;17.42;;;9.65;;
24084;SDS011;12268;52.110;5.548;2022-11-20T05:47:18;15.63;;;9.50;;
24084;SDS011;12268;52.110;5.548;2022-11-20T05:49:43;21.35;;;11.60;;
24084;SDS011;12268;52.110;5.548;2022-11-20T05:52:09;17.77;;;10.75;;
24084;SDS011;12268;52.110;5.548;2022-11-20T05:54:35;22.88;;;11.05;;
24084;SDS011;12268;52.110;5.548;2022-11-20T05:57:00;18.58;;;9.80;;
24084;SDS011;12268;52.110;5.548;2022-11-20T05:59:26;20.10;;;10.35;;
24084;SDS011;12268;52.110;5.548;2022-11-20T06:01:51;18.63;;;11.32;;
24084;SDS011;12268;52.110;5.548;2022-11-20T06:04:17;20.77;;;11.88;;
24084;SDS011;12268;52.110;5.548;2022-11-20T06:06:42;16.73;;;10.57;;
24084;SDS011;12268;52.110;5.548;2022-11-20T06:09:08;16.88;;;9.88;;
24084;SDS011;12268;52.110;5.548;2022-11-20T06:11:33;16.92;;;9.90;;
24084;SDS011;12268;52.110;5.548;2022-11-20T06:13:59;17.00;;;10.82;;
24084;SDS011;12268;52.110;5.548;2022-11-20T06:16:24;18.77;;;10.93;;
24084;SDS011;12268;52.110;5.548;2022-11-20T06:18:50;17.30;;;9.93;;
24084;SDS011;12268;52.110;5.548;2022-11-20T06:21:16;18.45;;;10.70;;
24084;SDS011;12268;52.110;5.548;2022-11-20T06:23:44;18.13;;;10.80;;
24084;SDS011;12268;52.110;5.548;2022-11-20T06:26:11;19.38;;;9.07;;
24084;SDS011;12268;52.110;5.548;2022-11-20T06:28:41;20.80;;;11.43;;
24084;SDS011;12268;52.110;5.548;2022-11-20T06:31:07;16.35;;;10.90;;
24084;SDS011;12268;52.110;5.548;2022-11-20T06:33:35;25.27;;;11.77;;
24084;SDS011;12268;52.110;5.548;2022-11-20T06:36:00;26.75;;;12.57;;
24084;SDS011;12268;52.110;5.548;2022-11-20T06:38:26;19.40;;;10.27;;
24084;SDS011;12268;52.110;5.548;2022-11-20T06:40:52;17.92;;;10.90;;
24084;SDS011;12268;52.110;5.548;2022-11-20T06:43:19;21.60;;;11.93;;
24084;SDS011;12268;52.110;5.548;2022-11-20T06:45:44;19.08;;;11.00;;
24084;SDS011;12268;52.110;5.548;2022-11-20T06:48:10;21.92;;;10.77;;
24084;SDS011;12268;52.110;5.548;2022-11-20T06:50:36;18.33;;;9.65;;
24084;SDS011;12268;52.110;5.548;2022-11-20T06:53:02;22.50;;;11.05;;
24084;SDS011;12268;52.110;5.548;2022-11-20T06:55:29;21.13;;;11.77;;
24084;SDS011;12268;52.110;5.548;2022-11-20T06:57:55;20.35;;;11.77;;
24084;SDS011;12268;52.110;5.548;2022-11-20T07:00:21;26.15;;;11.30;;
24084;SDS011;12268;52.110;5.548;2022-11-20T07:02:46;17.40;;;11.40;;
24084;SDS011;12268;52.110;5.548;2022-11-20T07:05:12;19.83;;;11.18;;
24084;SDS011;12268;52.110;5.548;2022-11-20T07:07:37;23.27;;;11.55;;
24084;SDS011;12268;52.110;5.548;2022-11-20T07:10:03;24.88;;;12.13;;
24084;SDS011;12268;52.110;5.548;2022-11-20T07:12:29;20.52;;;11.55;;
24084;SDS011;12268;52.110;5.548;2022-11-20T07:14:54;24.15;;;11.70;;
24084;SDS011;12268;52.110;5.548;2022-11-20T07:17:20;20.42;;;11.98;;
24084;SDS011;12268;52.110;5.548;2022-11-20T07:19:45;23.80;;;11.93;;
24084;SDS011;12268;52.110;5.548;2022-11-20T07:22:11;19.13;;;10.40;;
24084;SDS011;12268;52.110;5.548;2022-11-20T07:24:38;28.23;;;11.70;;
24084;SDS011;12268;52.110;5.548;2022-11-20T07:27:04;19.42;;;10.13;;
24084;SDS011;12268;52.110;5.548;2022-11-20T07:29:29;28.35;;;11.30;;
24084;SDS011;12268;52.110;5.548;2022-11-20T07:31:55;24.33;;;10.43;;
24084;SDS011;12268;52.110;5.548;2022-11-20T07:34:21;16.83;;;9.20;;
24084;SDS011;12268;52.110;5.548;2022-11-20T07:36:47;18.70;;;9.68;;
24084;SDS011;12268;52.110;5.548;2022-11-20T07:39:12;22.00;;;12.02;;
24084;SDS011;12268;52.110;5.548;2022-11-20T07:41:38;27.38;;;14.38;;
24084;SDS011;12268;52.110;5.548;2022-11-20T07:44:04;27.25;;;16.98;;
24084;SDS011;12268;52.110;5.548;2022-11-20T07:46:29;23.63;;;14.60;;
24084;SDS011;12268;52.110;5.548;2022-11-20T07:48:55;23.30;;;11.35;;
24084;SDS011;12268;52.110;5.548;2022-11-20T07:51:21;21.00;;;11.48;;
24084;SDS011;12268;52.110;5.548;2022-11-20T07:53:46;20.80;;;11.43;;
24084;SDS011;12268;52.110;5.548;2022-11-20T07:56:12;19.65;;;11.48;;
24084;SDS011;12268;52.110;5.548;2022-11-20T07:58:38;15.02;;;9.90;;
24084;SDS011;12268;52.110;5.548;2022-11-20T08:01:05;18.13;;;11.50;;
24084;SDS011;12268;52.110;5.548;2022-11-20T08:03:31;19.70;;;10.82;;
24084;SDS011;12268;52.110;5.548;2022-11-20T08:06:00;25.95;;;11.48;;
24084;SDS011;12268;52.110;5.548;2022-11-20T08:08:27;20.13;;;11.15;;
24084;SDS011;12268;52.110;5.548;2022-11-20T08:10:52;18.88;;;11.15;;
24084;SDS011;12268;52.110;5.548;2022-11-20T08:13:38;26.58;;;12.10;;
24084;SDS011;12268;52.110;5.548;2022-11-20T08:16:22;21.55;;;11.05;;
24084;SDS011;12268;52.110;5.548;2022-11-20T08:18:47;20.38;;;10.48;;
24084;SDS011;12268;52.110;5.548;2022-11-20T08:21:13;32.03;;;15.10;;
24084;SDS011;12268;52.110;5.548;2022-11-20T08:23:38;25.25;;;13.35;;
24084;SDS011;12268;52.110;5.548;2022-11-20T08:26:04;29.08;;;12.15;;
24084;SDS011;12268;52.110;5.548;2022-11-20T08:28:29;21.73;;;12.75;;
24084;SDS011;12268;52.110;5.548;2022-11-20T08:31:02;23.00;;;12.20;;
24084;SDS011;12268;52.110;5.548;2022-11-20T08:33:28;22.35;;;12.93;;
24084;SDS011;12268;52.110;5.548;2022-11-20T08:35:57;23.60;;;12.93;;
24084;SDS011;12268;52.110;5.548;2022-11-20T08:38:24;22.67;;;13.35;;
24084;SDS011;12268;52.110;5.548;2022-11-20T08:40:50;25.92;;;13.43;;
24084;SDS011;12268;52.110;5.548;2022-11-20T08:43:34;22.52;;;11.35;;
24084;SDS011;12268;52.110;5.548;2022-11-20T08:45:59;20.67;;;11.02;;
24084;SDS011;12268;52.110;5.548;2022-11-20T08:48:25;26.17;;;11.52;;
24084;SDS011;12268;52.110;5.548;2022-11-20T08:50:50;21.65;;;12.40;;
24084;SDS011;12268;52.110;5.548;2022-11-20T08:53:16;23.58;;;12.70;;
24084;SDS011;12268;52.110;5.548;2022-11-20T08:55:41;21.08;;;12.05;;
24084;SDS011;12268;52.110;5.548;2022-11-20T08:58:07;23.85;;;12.25;;
24084;SDS011;12268;52.110;5.548;2022-11-20T09:00:32;26.70;;;12.43;;
24084;SDS011;12268;52.110;5.548;2022-11-20T09:02:58;25.05;;;11.52;;
24084;SDS011;12268;52.110;5.548;2022-11-20T09:05:25;25.60;;;12.82;;
24084;SDS011;12268;52.110;5.548;2022-11-20T09:07:51;25.08;;;12.48;;
24084;SDS011;12268;52.110;5.548;2022-11-20T09:10:17;25.83;;;12.68;;
24084;SDS011;12268;52.110;5.548;2022-11-20T09:12:42;28.08;;;14.13;;
24084;SDS011;12268;52.110;5.548;2022-11-20T09:15:08;26.27;;;13.50;;
24084;SDS011;12268;52.110;5.548;2022-11-20T09:17:34;24.30;;;12.55;;
24084;SDS011;12268;52.110;5.548;2022-11-20T09:19:59;27.33;;;13.57;;
24084;SDS011;12268;52.110;5.548;2022-11-20T09:22:25;29.15;;;13.68;;
24084;SDS011;12268;52.110;5.548;2022-11-20T09:24:50;24.90;;;13.30;;
24084;SDS011;12268;52.110;5.548;2022-11-20T09:27:16;26.02;;;12.73;;
24084;SDS011;12268;52.110;5.548;2022-11-20T09:29:48;25.33;;;12.93;;
24084;SDS011;12268;52.110;5.548;2022-11-20T09:32:13;27.77;;;13.95;;
24084;SDS011;12268;52.110;5.548;2022-11-20T09:34:39;26.98;;;12.63;;
24084;SDS011;12268;52.110;5.548;2022-11-20T09:37:04;24.15;;;12.52;;
24084;SDS011;12268;52.110;5.548;2022-11-20T09:39:30;28.05;;;15.15;;
24084;SDS011;12268;52.110;5.548;2022-11-20T09:53:13;28.55;;;13.63;;
24084;SDS011;12268;52.110;5.548;2022-11-20T09:55:59;24.02;;;13.15;;
24084;SDS011;12268;52.110;5.548;2022-11-20T09:58:35;23.95;;;13.35;;
24084;SDS011;12268;52.110;5.548;2022-11-20T10:01:11;24.30;;;13.07;;
24084;SDS011;12268;52.110;5.548;2022-11-20T10:06:16;27.50;;;13.88;;
24084;SDS011;12268;52.110;5.548;2022-11-20T10:17:28;24.85;;;13.05;;
24084;SDS011;12268;52.110;5.548;2022-11-20T10:25:48;25.63;;;14.15;;
24084;SDS011;12268;52.110;5.548;2022-11-20T10:28:34;25.55;;;13.52;;
24084;SDS011;12268;52.110;5.548;2022-11-20T10:31:29;26.17;;;13.80;;
24084;SDS011;12268;52.110;5.548;2022-11-20T10:34:18;28.15;;;13.85;;
24084;SDS011;12268;52.110;5.548;2022-11-20T10:37:01;30.02;;;13.90;;
24084;SDS011;12268;52.110;5.548;2022-11-20T10:42:26;27.25;;;14.25;;
24084;SDS011;12268;52.110;5.548;2022-11-20T10:45:15;28.88;;;14.27;;
24084;SDS011;12268;52.110;5.548;2022-11-20T10:48:07;35.65;;;14.98;;
24084;SDS011;12268;52.110;5.548;2022-11-20T10:50:39;29.65;;;15.18;;
24084;SDS011;12268;52.110;5.548;2022-11-20T10:53:28;25.25;;;14.20;;
24084;SDS011;12268;52.110;5.548;2022-11-20T10:55:57;30.55;;;15.60;;
24084;SDS011;12268;52.110;5.548;2022-11-20T10:58:48;30.47;;;15.63;;
24084;SDS011;12268;52.110;5.548;2022-11-20T11:01:25;30.83;;;14.68;;
24084;SDS011;12268;52.110;5.548;2022-11-20T11:03:52;30.77;;;13.88;;
24084;SDS011;12268;52.110;5.548;2022-11-20T11:09:10;30.02;;;15.18;;
24084;SDS011;12268;52.110;5.548;2022-11-20T11:11:40;30.65;;;14.43;;
24084;SDS011;12268;52.110;5.548;2022-11-20T11:14:06;29.95;;;15.27;;
24084;SDS011;12268;52.110;5.548;2022-11-20T11:16:40;33.00;;;16.40;;
24084;SDS011;12268;52.110;5.548;2022-11-20T11:19:18;31.42;;;15.38;;
24084;SDS011;12268;52.110;5.548;2022-11-20T11:21:47;30.73;;;15.25;;
24084;SDS011;12268;52.110;5.548;2022-11-20T11:24:18;32.92;;;15.45;;
24084;SDS011;12268;52.110;5.548;2022-11-20T11:26:51;31.13;;;15.90;;
24084;SDS011;12268;52.110;5.548;2022-11-20T11:29:31;31.67;;;15.68;;
24084;SDS011;12268;52.110;5.548;2022-11-20T11:32:07;33.92;;;16.25;;
24084;SDS011;12268;52.110;5.548;2022-11-20T11:34:37;31.25;;;16.65;;
24084;SDS011;12268;52.110;5.548;2022-11-20T11:37:03;32.50;;;16.00;;
24084;SDS011;12268;52.110;5.548;2022-11-20T11:39:35;34.40;;;17.10;;
24084;SDS011;12268;52.110;5.548;2022-11-20T11:42:02;28.83;;;15.52;;
24084;SDS011;12268;52.110;5.548;2022-11-20T11:44:32;33.65;;;16.92;;
24084;SDS011;12268;52.110;5.548;2022-11-20T11:47:22;33.03;;;15.90;;
24084;SDS011;12268;52.110;5.548;2022-11-20T11:55:44;34.58;;;17.25;;
24084;SDS011;12268;52.110;5.548;2022-11-20T12:00:50;37.03;;;17.98;;
24084;SDS011;12268;52.110;5.548;2022-11-20T12:03:38;38.60;;;17.25;;
24084;SDS011;12268;52.110;5.548;2022-11-20T12:06:14;36.65;;;18.13;;
24084;SDS011;12268;52.110;5.548;2022-11-20T12:11:20;35.80;;;17.38;;
24084;SDS011;12268;52.110;5.548;2022-11-20T12:16:49;35.15;;;17.20;;
24084;SDS011;12268;52.110;5.548;2022-11-20T12:19:15;39.15;;;18.88;;
24084;SDS011;12268;52.110;5.548;2022-11-20T12:21:55;35.50;;;18.10;;
24084;SDS011;12268;52.110;5.548;2022-11-20T12:24:59;30.55;;;16.63;;
24084;SDS011;12268;52.110;5.548;2022-11-20T12:30:11;34.08;;;16.45;;
24084;SDS011;12268;52.110;5.548;2022-11-20T12:40:57;31.90;;;15.98;;
24084;SDS011;12268;52.110;5.548;2022-11-20T12:43:47;31.98;;;16.27;;
24084;SDS011;12268;52.110;5.548;2022-11-20T12:52:48;34.40;;;17.88;;
24084;SDS011;12268;52.110;5.548;2022-11-20T12:58:03;31.70;;;16.42;;
24084;SDS011;12268;52.110;5.548;2022-11-20T13:00:56;34.28;;;16.65;;
24084;SDS011;12268;52.110;5.548;2022-11-20T13:04:28;33.03;;;16.08;;
24084;SDS011;12268;52.110;5.548;2022-11-20T13:06:49;38.58;;;18.00;;
24084;SDS011;12268;52.110;5.548;2022-11-20T13:09:16;31.58;;;15.98;;
24084;SDS011;12268;52.110;5.548;2022-11-20T13:11:50;33.10;;;15.88;;
24084;SDS011;12268;52.110;5.548;2022-11-20T13:20:18;34.75;;;15.63;;
24084;SDS011;12268;52.110;5.548;2022-11-20T13:22:48;36.47;;;16.95;;
24084;SDS011;12268;52.110;5.548;2022-11-20T13:25:23;34.63;;;16.58;;
24084;SDS011;12268;52.110;5.548;2022-11-20T13:27:54;32.17;;;17.40;;
24084;SDS011;12268;52.110;5.548;2022-11-20T13:30:23;28.27;;;15.15;;
24084;SDS011;12268;52.110;5.548;2022-11-20T13:38:08;30.45;;;15.90;;
24084;SDS011;12268;52.110;5.548;2022-11-20T13:40:39;31.90;;;16.40;;
24084;SDS011;12268;52.110;5.548;2022-11-20T13:43:18;36.90;;;15.63;;
24084;SDS011;12268;52.110;5.548;2022-11-20T13:46:05;30.20;;;14.77;;
24084;SDS011;12268;52.110;5.548;2022-11-20T13:48:33;36.53;;;17.25;;
24084;SDS011;12268;52.110;5.548;2022-11-20T13:57:19;32.75;;;15.57;;
24084;SDS011;12268;52.110;5.548;2022-11-20T13:59:57;36.33;;;18.13;;
24084;SDS011;12268;52.110;5.548;2022-11-20T14:02:32;36.45;;;17.88;;
24084;SDS011;12268;52.110;5.548;2022-11-20T14:04:58;38.10;;;18.08;;
24084;SDS011;12268;52.110;5.548;2022-11-20T14:07:38;35.45;;;17.38;;
24084;SDS011;12268;52.110;5.548;2022-11-20T14:10:18;35.60;;;18.35;;
24084;SDS011;12268;52.110;5.548;2022-11-20T14:12:52;36.42;;;16.70;;
24084;SDS011;12268;52.110;5.548;2022-11-20T14:15:31;36.20;;;18.45;;
24084;SDS011;12268;52.110;5.548;2022-11-20T14:17:58;38.50;;;19.00;;
24084;SDS011;12268;52.110;5.548;2022-11-20T14:20:36;36.97;;;18.02;;
24084;SDS011;12268;52.110;5.548;2022-11-20T14:23:03;42.20;;;17.90;;
24084;SDS011;12268;52.110;5.548;2022-11-20T14:25:30;37.10;;;18.27;;
24084;SDS011;12268;52.110;5.548;2022-11-20T14:28:00;37.67;;;18.88;;
24084;SDS011;12268;52.110;5.548;2022-11-20T14:30:43;39.53;;;18.17;;
24084;SDS011;12268;52.110;5.548;2022-11-20T14:33:11;37.65;;;18.38;;
24084;SDS011;12268;52.110;5.548;2022-11-20T14:38:12;43.13;;;22.15;;
24084;SDS011;12268;52.110;5.548;2022-11-20T14:40:40;40.05;;;19.67;;
24084;SDS011;12268;52.110;5.548;2022-11-20T14:45:48;38.75;;;19.10;;
24084;SDS011;12268;52.110;5.548;2022-11-20T14:49:04;40.28;;;19.90;;
24084;SDS011;12268;52.110;5.548;2022-11-20T14:54:19;41.53;;;20.67;;
24084;SDS011;12268;52.110;5.548;2022-11-20T14:56:54;39.38;;;19.67;;
24084;SDS011;12268;52.110;5.548;2022-11-20T14:59:24;39.75;;;18.27;;
24084;SDS011;12268;52.110;5.548;2022-11-20T15:01:55;40.40;;;19.52;;
24084;SDS011;12268;52.110;5.548;2022-11-20T15:04:23;36.70;;;17.70;;
24084;SDS011;12268;52.110;5.548;2022-11-20T15:06:50;43.88;;;19.02;;
24084;SDS011;12268;52.110;5.548;2022-11-20T15:09:17;33.97;;;18.15;;
24084;SDS011;12268;52.110;5.548;2022-11-20T15:11:51;41.35;;;19.38;;
24084;SDS011;12268;52.110;5.548;2022-11-20T15:14:22;37.42;;;17.42;;
24084;SDS011;12268;52.110;5.548;2022-11-20T15:16:49;41.05;;;18.08;;
24084;SDS011;12268;52.110;5.548;2022-11-20T15:19:22;42.78;;;18.95;;
24084;SDS011;12268;52.110;5.548;2022-11-20T15:21:49;38.40;;;18.70;;
24084;SDS011;12268;52.110;5.548;2022-11-20T15:24:15;41.97;;;19.63;;
24084;SDS011;12268;52.110;5.548;2022-11-20T15:26:41;45.28;;;19.70;;
24084;SDS011;12268;52.110;5.548;2022-11-20T15:29:08;41.08;;;19.00;;
24084;SDS011;12268;52.110;5.548;2022-11-20T15:31:36;39.13;;;19.45;;
24084;SDS011;12268;52.110;5.548;2022-11-20T15:34:07;35.15;;;18.38;;
24084;SDS011;12268;52.110;5.548;2022-11-20T15:36:35;34.45;;;18.50;;
24084;SDS011;12268;52.110;5.548;2022-11-20T15:39:00;44.58;;;19.40;;
24084;SDS011;12268;52.110;5.548;2022-11-20T15:41:27;38.40;;;18.00;;
24084;SDS011;12268;52.110;5.548;2022-11-20T15:43:53;41.70;;;19.77;;
24084;SDS011;12268;52.110;5.548;2022-11-20T15:46:20;40.10;;;18.60;;
24084;SDS011;12268;52.110;5.548;2022-11-20T15:48:53;40.38;;;19.40;;
24084;SDS011;12268;52.110;5.548;2022-11-20T15:53:53;41.38;;;19.02;;
24084;SDS011;12268;52.110;5.548;2022-11-20T15:56:19;37.78;;;18.67;;
24084;SDS011;12268;52.110;5.548;2022-11-20T15:58:45;37.75;;;19.05;;
24084;SDS011;12268;52.110;5.548;2022-11-20T16:01:11;42.88;;;18.42;;
24084;SDS011;12268;52.110;5.548;2022-11-20T16:03:38;40.20;;;18.35;;
24084;SDS011;12268;52.110;5.548;2022-11-20T16:06:04;42.63;;;20.80;;
24084;SDS011;12268;52.110;5.548;2022-11-20T16:08:30;37.10;;;18.92;;
24084;SDS011;12268;52.110;5.548;2022-11-20T16:10:55;37.55;;;19.20;;
24084;SDS011;12268;52.110;5.548;2022-11-20T16:13:21;38.10;;;18.67;;
24084;SDS011;12268;52.110;5.548;2022-11-20T16:16:06;38.80;;;18.23;;
24084;SDS011;12268;52.110;5.548;2022-11-20T16:18:36;35.60;;;17.33;;
24084;SDS011;12268;52.110;5.548;2022-11-20T16:21:02;38.28;;;18.40;;
24084;SDS011;12268;52.110;5.548;2022-11-20T16:23:27;38.67;;;18.33;;
24084;SDS011;12268;52.110;5.548;2022-11-20T16:25:53;39.55;;;18.17;;
24084;SDS011;12268;52.110;5.548;2022-11-20T16:28:19;32.92;;;16.58;;
24084;SDS011;12268;52.110;5.548;2022-11-20T16:30:45;36.85;;;17.40;;
24084;SDS011;12268;52.110;5.548;2022-11-20T16:33:12;34.38;;;16.30;;
24084;SDS011;12268;52.110;5.548;2022-11-20T16:35:42;33.85;;;16.85;;
24084;SDS011;12268;52.110;5.548;2022-11-20T16:38:08;33.10;;;16.38;;
24084;SDS011;12268;52.110;5.548;2022-11-20T16:40:34;31.75;;;16.33;;
24084;SDS011;12268;52.110;5.548;2022-11-20T16:43:07;36.78;;;17.88;;
24084;SDS011;12268;52.110;5.548;2022-11-20T16:45:34;39.55;;;16.90;;
24084;SDS011;12268;52.110;5.548;2022-11-20T16:48:05;39.65;;;18.33;;
24084;SDS011;12268;52.110;5.548;2022-11-20T16:50:30;35.70;;;18.35;;
24084;SDS011;12268;52.110;5.548;2022-11-20T16:52:56;38.40;;;17.25;;
24084;SDS011;12268;52.110;5.548;2022-11-20T16:55:21;34.10;;;16.92;;
24084;SDS011;12268;52.110;5.548;2022-11-20T16:57:47;39.28;;;17.80;;
24084;SDS011;12268;52.110;5.548;2022-11-20T17:00:13;38.00;;;18.60;;
24084;SDS011;12268;52.110;5.548;2022-11-20T17:02:39;34.20;;;18.13;;
24084;SDS011;12268;52.110;5.548;2022-11-20T17:05:04;35.88;;;18.17;;
24084;SDS011;12268;52.110;5.548;2022-11-20T17:07:30;43.70;;;19.67;;
24084;SDS011;12268;52.110;5.548;2022-11-20T17:09:56;37.53;;;17.90;;
24084;SDS011;12268;52.110;5.548;2022-11-20T17:12:22;40.70;;;19.33;;
24084;SDS011;12268;52.110;5.548;2022-11-20T17:14:47;37.92;;;18.25;;
24084;SDS011;12268;52.110;5.548;2022-11-20T17:17:13;33.53;;;18.73;;
24084;SDS011;12268;52.110;5.548;2022-11-20T17:19:38;40.22;;;17.92;;
24084;SDS011;12268;52.110;5.548;2022-11-20T17:22:04;36.50;;;18.50;;
24084;SDS011;12268;52.110;5.548;2022-11-20T17:24:29;38.35;;;19.13;;
24084;SDS011;12268;52.110;5.548;2022-11-20T17:26:55;42.25;;;20.85;;
24084;SDS011;12268;52.110;5.548;2022-11-20T17:29:20;44.47;;;20.08;;
24084;SDS011;12268;52.110;5.548;2022-11-20T17:31:48;38.13;;;19.83;;
24084;SDS011;12268;52.110;5.548;2022-11-20T17:34:14;38.40;;;18.23;;
24084;SDS011;12268;52.110;5.548;2022-11-20T17:36:40;40.70;;;18.00;;
24084;SDS011;12268;52.110;5.548;2022-11-20T17:39:09;40.42;;;18.83;;